sensor_id;sensor_type;location;lat;lon;timestamp;temperature;humidity
40808;DHT22;26523;52.504;13.498;2022-08-19T00:00:23;20.20;99.90
40808;DHT22;26523;52.504;13.498;2022-08-19T00:02:49;20.20;99.90
40808;DHT22;26523;52.504;13.498;2022-08-19T00:05:15;20.20;99.90
40808;DHT22;26523;52.504;13.498;2022-08-19T00:07:42;20.20;99.90
40808;DHT22;26523;52.504;13.498;2022-08-19T00:10:09;20.30;99.90
40808;DHT22;26523;52.504;13.498;2022-08-19T00:12:35;20.20;99.90
40808;DHT22;26523;52.504;13.498;2022-08-19T00:15:01;20.20;99.90
40808;DHT22;26523;52.504;13.498;2022-08-19T00:17:27;20.20;99.90
40808;DHT22;26523;52.504;13.498;2022-08-19T00:19:53;20.20;99.90
40808;DHT22;26523;52.504;13.498;2022-08-19T00:22:18;20.20;99.90
40808;DHT22;26523;52.504;13.498;2022-08-19T00:24:45;20.20;99.90
40808;DHT22;26523;52.504;13.498;2022-08-19T00:27:11;20.20;99.90
40808;DHT22;26523;52.504;13.498;2022-08-19T00:29:37;20.20;99.90
40808;DHT22;26523;52.504;13.498;2022-08-19T00:32:03;20.20;99.90
40808;DHT22;26523;52.504;13.498;2022-08-19T00:34:29;20.20;99.90
40808;DHT22;26523;52.504;13.498;2022-08-19T00:36:56;20.20;99.90
40808;DHT22;26523;52.504;13.498;2022-08-19T00:39:22;20.20;99.90
40808;DHT22;26523;52.504;13.498;2022-08-19T00:41:48;20.20;99.90
40808;DHT22;26523;52.504;13.498;2022-08-19T00:44:23;20.20;99.90
40808;DHT22;26523;52.504;13.498;2022-08-19T00:46:51;20.20;99.90
40808;DHT22;26523;52.504;13.498;2022-08-19T00:49:32;20.20;99.90
40808;DHT22;26523;52.504;13.498;2022-08-19T00:52:11;20.10;99.90
40808;DHT22;26523;52.504;13.498;2022-08-19T00:54:39;20.10;99.90
40808;DHT22;26523;52.504;13.498;2022-08-19T00:57:09;20.10;99.90
40808;DHT22;26523;52.504;13.498;2022-08-19T00:59:39;20.10;99.90
40808;DHT22;26523;52.504;13.498;2022-08-19T01:02:06;20.10;99.90
40808;DHT22;26523;52.504;13.498;2022-08-19T01:04:32;20.00;99.90
40808;DHT22;26523;52.504;13.498;2022-08-19T01:06:58;20.00;99.90
40808;DHT22;26523;52.504;13.498;2022-08-19T01:09:24;20.00;99.90
40808;DHT22;26523;52.504;13.498;2022-08-19T01:11:51;19.90;99.90
40808;DHT22;26523;52.504;13.498;2022-08-19T01:14:17;19.90;99.90
40808;DHT22;26523;52.504;13.498;2022-08-19T01:16:45;19.90;99.90
40808;DHT22;26523;52.504;13.498;2022-08-19T01:19:27;19.80;99.90
40808;DHT22;26523;52.504;13.498;2022-08-19T01:22:00;19.80;99.90
40808;DHT22;26523;52.504;13.498;2022-08-19T01:24:27;19.80;99.90
40808;DHT22;26523;52.504;13.498;2022-08-19T01:26:53;19.80;99.90
40808;DHT22;26523;52.504;13.498;2022-08-19T01:29:20;19.80;99.90
40808;DHT22;26523;52.504;13.498;2022-08-19T01:31:45;19.70;99.90
40808;DHT22;26523;52.504;13.498;2022-08-19T01:34:11;19.50;99.90
40808;DHT22;26523;52.504;13.498;2022-08-19T01:36:40;19.40;99.90
40808;DHT22;26523;52.504;13.498;2022-08-19T01:39:10;19.40;99.90
40808;DHT22;26523;52.504;13.498;2022-08-19T01:41:37;19.40;99.90
40808;DHT22;26523;52.504;13.498;2022-08-19T01:44:04;19.40;99.90
40808;DHT22;26523;52.504;13.498;2022-08-19T01:46:31;19.40;99.90
40808;DHT22;26523;52.504;13.498;2022-08-19T01:48:57;19.50;99.90
40808;DHT22;26523;52.504;13.498;2022-08-19T01:51:23;19.60;99.90
40808;DHT22;26523;52.504;13.498;2022-08-19T01:53:49;19.50;99.90
40808;DHT22;26523;52.504;13.498;2022-08-19T01:56:16;19.50;99.90
40808;DHT22;26523;52.504;13.498;2022-08-19T01:58:47;19.50;99.90
40808;DHT22;26523;52.504;13.498;2022-08-19T02:01:16;19.50;99.90
40808;DHT22;26523;52.504;13.498;2022-08-19T02:03:42;19.50;99.90
40808;DHT22;26523;52.504;13.498;2022-08-19T02:06:07;19.50;99.90
40808;DHT22;26523;52.504;13.498;2022-08-19T02:08:36;19.50;99.90
40808;DHT22;26523;52.504;13.498;2022-08-19T02:11:02;19.50;99.90
40808;DHT22;26523;52.504;13.498;2022-08-19T02:13:28;19.50;99.90
40808;DHT22;26523;52.504;13.498;2022-08-19T02:15:54;19.50;99.90
40808;DHT22;26523;52.504;13.498;2022-08-19T02:18:19;19.50;99.90
40808;DHT22;26523;52.504;13.498;2022-08-19T02:20:45;19.50;99.90
40808;DHT22;26523;52.504;13.498;2022-08-19T02:23:13;19.50;99.90
40808;DHT22;26523;52.504;13.498;2022-08-19T02:25:40;19.40;99.90
40808;DHT22;26523;52.504;13.498;2022-08-19T02:28:06;19.50;99.90
40808;DHT22;26523;52.504;13.498;2022-08-19T02:30:31;19.40;99.90
40808;DHT22;26523;52.504;13.498;2022-08-19T02:32:57;19.40;99.90
40808;DHT22;26523;52.504;13.498;2022-08-19T02:35:23;19.40;99.90
40808;DHT22;26523;52.504;13.498;2022-08-19T02:37:49;19.40;99.90
40808;DHT22;26523;52.504;13.498;2022-08-19T02:40:33;19.40;99.90
40808;DHT22;26523;52.504;13.498;2022-08-19T02:43:03;19.40;99.90
40808;DHT22;26523;52.504;13.498;2022-08-19T02:45:33;19.40;99.90
40808;DHT22;26523;52.504;13.498;2022-08-19T02:48:02;19.40;99.90
40808;DHT22;26523;52.504;13.498;2022-08-19T02:50:28;19.50;99.90
40808;DHT22;26523;52.504;13.498;2022-08-19T02:52:54;19.50;99.90
40808;DHT22;26523;52.504;13.498;2022-08-19T02:55:20;19.50;99.90
40808;DHT22;26523;52.504;13.498;2022-08-19T02:57:46;19.50;99.90
40808;DHT22;26523;52.504;13.498;2022-08-19T03:00:12;19.50;99.90
40808;DHT22;26523;52.504;13.498;2022-08-19T03:02:38;19.50;99.90
40808;DHT22;26523;52.504;13.498;2022-08-19T03:05:05;19.50;99.90
40808;DHT22;26523;52.504;13.498;2022-08-19T03:07:31;19.60;99.90
40808;DHT22;26523;52.504;13.498;2022-08-19T03:09:56;19.50;99.90
40808;DHT22;26523;52.504;13.498;2022-08-19T03:12:22;19.50;99.90
40808;DHT22;26523;52.504;13.498;2022-08-19T03:14:48;19.50;99.90
40808;DHT22;26523;52.504;13.498;2022-08-19T03:17:13;19.40;99.90
40808;DHT22;26523;52.504;13.498;2022-08-19T03:19:39;19.40;99.90
40808;DHT22;26523;52.504;13.498;2022-08-19T03:22:05;19.40;99.90
40808;DHT22;26523;52.504;13.498;2022-08-19T03:24:31;19.40;99.90
40808;DHT22;26523;52.504;13.498;2022-08-19T03:26:58;19.40;99.90
40808;DHT22;26523;52.504;13.498;2022-08-19T03:29:25;19.40;99.90
40808;DHT22;26523;52.504;13.498;2022-08-19T03:31:51;19.40;99.90
40808;DHT22;26523;52.504;13.498;2022-08-19T03:34:23;19.40;99.90
40808;DHT22;26523;52.504;13.498;2022-08-19T03:36:52;19.30;99.90
40808;DHT22;26523;52.504;13.498;2022-08-19T03:39:18;19.30;99.90
40808;DHT22;26523;52.504;13.498;2022-08-19T03:41:45;19.30;99.90
40808;DHT22;26523;52.504;13.498;2022-08-19T03:44:16;19.30;99.90
40808;DHT22;26523;52.504;13.498;2022-08-19T03:46:43;19.30;99.90
40808;DHT22;26523;52.504;13.498;2022-08-19T03:49:09;19.30;99.90
40808;DHT22;26523;52.504;13.498;2022-08-19T03:51:37;19.30;99.90
40808;DHT22;26523;52.504;13.498;2022-08-19T03:54:06;19.30;99.90
40808;DHT22;26523;52.504;13.498;2022-08-19T03:56:35;19.40;99.90
40808;DHT22;26523;52.504;13.498;2022-08-19T03:59:02;19.30;99.90
40808;DHT22;26523;52.504;13.498;2022-08-19T04:01:29;19.30;99.90
40808;DHT22;26523;52.504;13.498;2022-08-19T04:03:58;19.40;99.90
40808;DHT22;26523;52.504;13.498;2022-08-19T04:06:32;19.30;99.90
40808;DHT22;26523;52.504;13.498;2022-08-19T04:08:59;19.30;99.90
40808;DHT22;26523;52.504;13.498;2022-08-19T04:11:29;19.20;99.90
40808;DHT22;26523;52.504;13.498;2022-08-19T04:13:56;19.20;99.90
40808;DHT22;26523;52.504;13.498;2022-08-19T04:16:24;19.30;99.90
40808;DHT22;26523;52.504;13.498;2022-08-19T04:18:50;19.30;99.90
40808;DHT22;26523;52.504;13.498;2022-08-19T04:21:24;19.30;99.90
40808;DHT22;26523;52.504;13.498;2022-08-19T04:23:50;19.40;99.90
40808;DHT22;26523;52.504;13.498;2022-08-19T04:26:23;19.40;99.90
40808;DHT22;26523;52.504;13.498;2022-08-19T04:28:49;19.30;99.90
40808;DHT22;26523;52.504;13.498;2022-08-19T04:31:26;19.40;99.90
40808;DHT22;26523;52.504;13.498;2022-08-19T04:33:53;19.40;99.90
40808;DHT22;26523;52.504;13.498;2022-08-19T04:36:30;19.40;99.90
40808;DHT22;26523;52.504;13.498;2022-08-19T04:38:59;19.50;99.90
40808;DHT22;26523;52.504;13.498;2022-08-19T04:41:25;19.50;99.90
40808;DHT22;26523;52.504;13.498;2022-08-19T04:44:10;19.50;99.90
40808;DHT22;26523;52.504;13.498;2022-08-19T04:46:36;19.60;99.90
40808;DHT22;26523;52.504;13.498;2022-08-19T04:49:04;19.60;99.90
40808;DHT22;26523;52.504;13.498;2022-08-19T04:51:31;19.60;99.90
40808;DHT22;26523;52.504;13.498;2022-08-19T04:53:57;19.80;99.90
40808;DHT22;26523;52.504;13.498;2022-08-19T04:56:24;19.80;99.90
40808;DHT22;26523;52.504;13.498;2022-08-19T04:59:00;20.00;99.90
40808;DHT22;26523;52.504;13.498;2022-08-19T05:01:30;20.00;99.90
40808;DHT22;26523;52.504;13.498;2022-08-19T05:03:58;20.10;99.90
40808;DHT22;26523;52.504;13.498;2022-08-19T05:06:24;20.20;99.90
40808;DHT22;26523;52.504;13.498;2022-08-19T05:08:50;20.10;99.90
40808;DHT22;26523;52.504;13.498;2022-08-19T05:11:24;20.20;99.90
40808;DHT22;26523;52.504;13.498;2022-08-19T05:13:50;20.10;99.90
40808;DHT22;26523;52.504;13.498;2022-08-19T05:16:18;20.30;99.90
40808;DHT22;26523;52.504;13.498;2022-08-19T05:18:44;20.30;99.90
40808;DHT22;26523;52.504;13.498;2022-08-19T05:21:29;20.40;99.90
40808;DHT22;26523;52.504;13.498;2022-08-19T05:24:14;20.40;99.90
40808;DHT22;26523;52.504;13.498;2022-08-19T05:26:42;20.30;99.90
40808;DHT22;26523;52.504;13.498;2022-08-19T05:29:09;20.20;99.90
40808;DHT22;26523;52.504;13.498;2022-08-19T05:31:36;20.20;99.90
40808;DHT22;26523;52.504;13.498;2022-08-19T05:34:02;20.30;99.90
40808;DHT22;26523;52.504;13.498;2022-08-19T05:36:34;20.30;99.90
40808;DHT22;26523;52.504;13.498;2022-08-19T05:39:01;20.30;99.90
40808;DHT22;26523;52.504;13.498;2022-08-19T05:41:26;20.40;99.90
40808;DHT22;26523;52.504;13.498;2022-08-19T05:44:01;20.30;99.90
40808;DHT22;26523;52.504;13.498;2022-08-19T05:46:27;20.40;99.90
40808;DHT22;26523;52.504;13.498;2022-08-19T05:48:52;20.50;99.90
40808;DHT22;26523;52.504;13.498;2022-08-19T05:51:21;20.60;99.90
40808;DHT22;26523;52.504;13.498;2022-08-19T05:53:47;20.50;99.90
40808;DHT22;26523;52.504;13.498;2022-08-19T05:56:15;20.60;99.90
40808;DHT22;26523;52.504;13.498;2022-08-19T05:58:42;20.60;99.90
40808;DHT22;26523;52.504;13.498;2022-08-19T06:01:11;20.60;99.90
40808;DHT22;26523;52.504;13.498;2022-08-19T06:03:37;20.80;99.90
40808;DHT22;26523;52.504;13.498;2022-08-19T06:06:05;20.60;99.90
40808;DHT22;26523;52.504;13.498;2022-08-19T06:08:31;20.70;99.90
40808;DHT22;26523;52.504;13.498;2022-08-19T06:10:58;20.60;99.90
40808;DHT22;26523;52.504;13.498;2022-08-19T06:13:23;20.30;99.90
40808;DHT22;26523;52.504;13.498;2022-08-19T06:15:50;20.30;99.90
40808;DHT22;26523;52.504;13.498;2022-08-19T06:18:16;20.20;99.90
40808;DHT22;26523;52.504;13.498;2022-08-19T06:20:42;20.20;99.90
40808;DHT22;26523;52.504;13.498;2022-08-19T06:23:08;20.20;99.90
40808;DHT22;26523;52.504;13.498;2022-08-19T06:25:35;20.20;99.90
40808;DHT22;26523;52.504;13.498;2022-08-19T06:28:02;20.10;99.90
40808;DHT22;26523;52.504;13.498;2022-08-19T06:30:27;20.10;99.90
40808;DHT22;26523;52.504;13.498;2022-08-19T06:32:53;20.20;99.90
40808;DHT22;26523;52.504;13.498;2022-08-19T06:35:19;20.20;99.90
40808;DHT22;26523;52.504;13.498;2022-08-19T06:37:45;20.20;99.90
40808;DHT22;26523;52.504;13.498;2022-08-19T06:40:11;20.30;99.90
40808;DHT22;26523;52.504;13.498;2022-08-19T06:42:38;20.40;99.90
40808;DHT22;26523;52.504;13.498;2022-08-19T06:45:05;20.40;99.90
40808;DHT22;26523;52.504;13.498;2022-08-19T06:47:34;20.50;99.90
40808;DHT22;26523;52.504;13.498;2022-08-19T06:50:00;20.60;99.90
40808;DHT22;26523;52.504;13.498;2022-08-19T06:52:33;20.70;99.90
40808;DHT22;26523;52.504;13.498;2022-08-19T06:54:59;20.90;99.90
40808;DHT22;26523;52.504;13.498;2022-08-19T06:57:26;20.90;99.90
40808;DHT22;26523;52.504;13.498;2022-08-19T06:59:52;21.00;99.90
40808;DHT22;26523;52.504;13.498;2022-08-19T07:02:19;20.90;99.90
40808;DHT22;26523;52.504;13.498;2022-08-19T07:04:45;21.00;99.90
40808;DHT22;26523;52.504;13.498;2022-08-19T07:07:13;21.00;99.90
40808;DHT22;26523;52.504;13.498;2022-08-19T07:09:42;21.00;99.90
40808;DHT22;26523;52.504;13.498;2022-08-19T07:12:11;21.10;99.90
40808;DHT22;26523;52.504;13.498;2022-08-19T07:14:38;21.00;99.90
40808;DHT22;26523;52.504;13.498;2022-08-19T07:17:06;20.90;99.90
40808;DHT22;26523;52.504;13.498;2022-08-19T07:19:32;20.80;99.90
40808;DHT22;26523;52.504;13.498;2022-08-19T07:21:58;20.80;99.90
40808;DHT22;26523;52.504;13.498;2022-08-19T07:24:27;20.60;99.90
40808;DHT22;26523;52.504;13.498;2022-08-19T07:26:55;20.60;99.90
40808;DHT22;26523;52.504;13.498;2022-08-19T07:29:22;20.70;99.90
40808;DHT22;26523;52.504;13.498;2022-08-19T07:31:50;20.90;99.90
40808;DHT22;26523;52.504;13.498;2022-08-19T07:34:21;21.10;99.90
40808;DHT22;26523;52.504;13.498;2022-08-19T07:36:47;21.10;99.90
40808;DHT22;26523;52.504;13.498;2022-08-19T07:39:39;21.00;99.90
40808;DHT22;26523;52.504;13.498;2022-08-19T07:42:07;21.20;99.90
40808;DHT22;26523;52.504;13.498;2022-08-19T07:44:34;21.20;99.90
40808;DHT22;26523;52.504;13.498;2022-08-19T07:47:00;21.20;99.90
40808;DHT22;26523;52.504;13.498;2022-08-19T07:49:26;21.30;99.90
40808;DHT22;26523;52.504;13.498;2022-08-19T07:51:58;21.30;99.90
40808;DHT22;26523;52.504;13.498;2022-08-19T07:54:25;21.20;99.90
40808;DHT22;26523;52.504;13.498;2022-08-19T07:56:52;21.20;99.90
40808;DHT22;26523;52.504;13.498;2022-08-19T07:59:18;21.30;99.90
40808;DHT22;26523;52.504;13.498;2022-08-19T08:01:44;21.40;99.90
40808;DHT22;26523;52.504;13.498;2022-08-19T08:04:10;21.50;99.90
40808;DHT22;26523;52.504;13.498;2022-08-19T08:06:54;21.50;99.90
40808;DHT22;26523;52.504;13.498;2022-08-19T08:09:41;21.60;99.90
40808;DHT22;26523;52.504;13.498;2022-08-19T08:12:10;21.60;99.90
40808;DHT22;26523;52.504;13.498;2022-08-19T08:14:50;21.80;99.90
40808;DHT22;26523;52.504;13.498;2022-08-19T08:17:21;21.80;99.90
40808;DHT22;26523;52.504;13.498;2022-08-19T08:19:48;21.90;99.90
40808;DHT22;26523;52.504;13.498;2022-08-19T08:22:17;21.90;99.90
40808;DHT22;26523;52.504;13.498;2022-08-19T08:25:16;21.90;99.90
40808;DHT22;26523;52.504;13.498;2022-08-19T08:27:43;21.90;99.90
40808;DHT22;26523;52.504;13.498;2022-08-19T08:30:16;22.10;99.90
40808;DHT22;26523;52.504;13.498;2022-08-19T08:32:42;22.10;99.90
40808;DHT22;26523;52.504;13.498;2022-08-19T08:35:11;22.30;99.90
40808;DHT22;26523;52.504;13.498;2022-08-19T08:37:37;22.50;99.90
40808;DHT22;26523;52.504;13.498;2022-08-19T08:40:11;23.10;99.90
40808;DHT22;26523;52.504;13.498;2022-08-19T08:42:46;23.70;99.90
40808;DHT22;26523;52.504;13.498;2022-08-19T08:45:14;24.20;99.90
40808;DHT22;26523;52.504;13.498;2022-08-19T08:47:45;24.50;99.90
40808;DHT22;26523;52.504;13.498;2022-08-19T08:50:24;24.70;99.90
40808;DHT22;26523;52.504;13.498;2022-08-19T08:52:53;24.70;99.90
40808;DHT22;26523;52.504;13.498;2022-08-19T08:55:24;24.60;99.90
40808;DHT22;26523;52.504;13.498;2022-08-19T08:58:06;24.40;99.90
40808;DHT22;26523;52.504;13.498;2022-08-19T09:00:37;24.30;99.90
40808;DHT22;26523;52.504;13.498;2022-08-19T09:03:08;24.30;99.90
40808;DHT22;26523;52.504;13.498;2022-08-19T09:10:55;23.90;99.90
40808;DHT22;26523;52.504;13.498;2022-08-19T09:16:16;23.90;99.90
40808;DHT22;26523;52.504;13.498;2022-08-19T09:18:51;24.10;99.90
40808;DHT22;26523;52.504;13.498;2022-08-19T09:21:22;24.30;99.90
40808;DHT22;26523;52.504;13.498;2022-08-19T09:23:48;24.40;99.90
40808;DHT22;26523;52.504;13.498;2022-08-19T09:26:17;24.20;99.90
40808;DHT22;26523;52.504;13.498;2022-08-19T09:28:45;24.30;99.90
40808;DHT22;26523;52.504;13.498;2022-08-19T09:31:19;24.60;99.90
40808;DHT22;26523;52.504;13.498;2022-08-19T09:33:46;24.60;99.90
40808;DHT22;26523;52.504;13.498;2022-08-19T09:36:14;24.80;99.90
40808;DHT22;26523;52.504;13.498;2022-08-19T09:38:40;24.90;99.90
40808;DHT22;26523;52.504;13.498;2022-08-19T09:41:09;24.80;99.90
40808;DHT22;26523;52.504;13.498;2022-08-19T09:43:36;24.70;99.90
40808;DHT22;26523;52.504;13.498;2022-08-19T09:46:04;24.60;99.90
40808;DHT22;26523;52.504;13.498;2022-08-19T09:48:35;24.40;99.90
40808;DHT22;26523;52.504;13.498;2022-08-19T09:51:15;24.40;99.90
40808;DHT22;26523;52.504;13.498;2022-08-19T09:53:44;24.60;99.90
40808;DHT22;26523;52.504;13.498;2022-08-19T09:56:10;24.70;99.90
40808;DHT22;26523;52.504;13.498;2022-08-19T09:58:36;24.80;99.90
40808;DHT22;26523;52.504;13.498;2022-08-19T10:01:03;24.70;99.90
40808;DHT22;26523;52.504;13.498;2022-08-19T10:03:30;24.60;99.90
40808;DHT22;26523;52.504;13.498;2022-08-19T10:05:58;24.50;99.90
40808;DHT22;26523;52.504;13.498;2022-08-19T10:08:30;24.60;99.90
40808;DHT22;26523;52.504;13.498;2022-08-19T10:10:57;24.60;99.90
40808;DHT22;26523;52.504;13.498;2022-08-19T10:13:25;24.90;99.90
40808;DHT22;26523;52.504;13.498;2022-08-19T10:15:53;24.90;99.90
40808;DHT22;26523;52.504;13.498;2022-08-19T10:18:21;24.90;99.90
40808;DHT22;26523;52.504;13.498;2022-08-19T10:20:47;24.80;99.90
40808;DHT22;26523;52.504;13.498;2022-08-19T10:23:14;24.70;99.90
40808;DHT22;26523;52.504;13.498;2022-08-19T10:25:41;24.50;99.90
40808;DHT22;26523;52.504;13.498;2022-08-19T10:28:07;24.80;99.90
40808;DHT22;26523;52.504;13.498;2022-08-19T10:30:35;25.10;99.90
40808;DHT22;26523;52.504;13.498;2022-08-19T10:33:01;25.40;99.90
40808;DHT22;26523;52.504;13.498;2022-08-19T10:35:26;25.70;99.90
40808;DHT22;26523;52.504;13.498;2022-08-19T10:37:53;25.90;99.90
40808;DHT22;26523;52.504;13.498;2022-08-19T10:40:19;25.90;99.90
40808;DHT22;26523;52.504;13.498;2022-08-19T10:42:45;25.90;99.90
40808;DHT22;26523;52.504;13.498;2022-08-19T10:45:10;25.80;99.90
40808;DHT22;26523;52.504;13.498;2022-08-19T10:47:36;25.80;99.90
40808;DHT22;26523;52.504;13.498;2022-08-19T10:50:03;25.40;99.90
40808;DHT22;26523;52.504;13.498;2022-08-19T10:52:49;25.30;99.90
40808;DHT22;26523;52.504;13.498;2022-08-19T10:55:15;25.30;99.90
40808;DHT22;26523;52.504;13.498;2022-08-19T10:57:59;25.10;99.90
40808;DHT22;26523;52.504;13.498;2022-08-19T11:00:25;25.00;99.90
40808;DHT22;26523;52.504;13.498;2022-08-19T11:02:51;24.90;99.90
40808;DHT22;26523;52.504;13.498;2022-08-19T11:05:18;24.80;99.90
40808;DHT22;26523;52.504;13.498;2022-08-19T11:07:44;24.90;99.90
40808;DHT22;26523;52.504;13.498;2022-08-19T11:10:12;24.80;99.90
40808;DHT22;26523;52.504;13.498;2022-08-19T11:12:39;24.80;99.90
40808;DHT22;26523;52.504;13.498;2022-08-19T11:15:09;24.80;99.90
40808;DHT22;26523;52.504;13.498;2022-08-19T11:17:37;24.50;99.90
40808;DHT22;26523;52.504;13.498;2022-08-19T11:20:07;24.50;99.90
40808;DHT22;26523;52.504;13.498;2022-08-19T11:22:32;24.60;99.90
40808;DHT22;26523;52.504;13.498;2022-08-19T11:24:58;24.60;99.90
40808;DHT22;26523;52.504;13.498;2022-08-19T11:27:23;24.50;99.90
40808;DHT22;26523;52.504;13.498;2022-08-19T11:29:49;24.40;99.90
40808;DHT22;26523;52.504;13.498;2022-08-19T11:32:18;24.50;99.90
40808;DHT22;26523;52.504;13.498;2022-08-19T11:34:43;24.40;99.90
40808;DHT22;26523;52.504;13.498;2022-08-19T11:37:09;24.50;99.90
40808;DHT22;26523;52.504;13.498;2022-08-19T11:39:36;24.60;99.90
40808;DHT22;26523;52.504;13.498;2022-08-19T11:42:03;24.70;99.90
40808;DHT22;26523;52.504;13.498;2022-08-19T11:44:49;24.80;99.90
40808;DHT22;26523;52.504;13.498;2022-08-19T11:47:16;24.90;99.90
40808;DHT22;26523;52.504;13.498;2022-08-19T11:49:42;25.10;99.90
40808;DHT22;26523;52.504;13.498;2022-08-19T11:52:08;25.30;99.90
40808;DHT22;26523;52.504;13.498;2022-08-19T11:54:34;25.20;99.90
40808;DHT22;26523;52.504;13.498;2022-08-19T11:57:03;25.30;99.90
40808;DHT22;26523;52.504;13.498;2022-08-19T11:59:29;25.30;99.90
40808;DHT22;26523;52.504;13.498;2022-08-19T12:01:55;25.30;99.90
40808;DHT22;26523;52.504;13.498;2022-08-19T12:04:21;25.40;99.90
40808;DHT22;26523;52.504;13.498;2022-08-19T12:06:47;25.50;99.90
40808;DHT22;26523;52.504;13.498;2022-08-19T12:09:15;25.40;99.90
40808;DHT22;26523;52.504;13.498;2022-08-19T12:11:41;25.40;99.90
40808;DHT22;26523;52.504;13.498;2022-08-19T12:14:11;25.40;99.90
40808;DHT22;26523;52.504;13.498;2022-08-19T12:16:39;25.60;99.90
40808;DHT22;26523;52.504;13.498;2022-08-19T12:19:06;25.70;99.90
40808;DHT22;26523;52.504;13.498;2022-08-19T12:21:34;25.90;99.90
40808;DHT22;26523;52.504;13.498;2022-08-19T12:24:01;26.20;99.90
40808;DHT22;26523;52.504;13.498;2022-08-19T12:26:29;26.40;99.90
40808;DHT22;26523;52.504;13.498;2022-08-19T12:28:54;26.50;99.90
40808;DHT22;26523;52.504;13.498;2022-08-19T12:31:20;26.40;99.90
40808;DHT22;26523;52.504;13.498;2022-08-19T12:33:46;26.30;99.90
40808;DHT22;26523;52.504;13.498;2022-08-19T12:36:16;26.30;99.90
40808;DHT22;26523;52.504;13.498;2022-08-19T12:38:43;26.30;99.90
40808;DHT22;26523;52.504;13.498;2022-08-19T12:41:11;26.40;99.90
40808;DHT22;26523;52.504;13.498;2022-08-19T12:43:37;26.40;99.90
40808;DHT22;26523;52.504;13.498;2022-08-19T12:46:04;26.40;99.90
40808;DHT22;26523;52.504;13.498;2022-08-19T12:48:33;26.20;99.90
40808;DHT22;26523;52.504;13.498;2022-08-19T12:50:59;26.10;99.90
40808;DHT22;26523;52.504;13.498;2022-08-19T12:53:25;26.10;99.90
40808;DHT22;26523;52.504;13.498;2022-08-19T12:56:00;26.10;99.90
40808;DHT22;26523;52.504;13.498;2022-08-19T12:58:26;26.20;99.90
40808;DHT22;26523;52.504;13.498;2022-08-19T13:00:52;26.20;99.90
40808;DHT22;26523;52.504;13.498;2022-08-19T13:03:18;26.30;99.90
40808;DHT22;26523;52.504;13.498;2022-08-19T13:05:44;26.50;99.90
40808;DHT22;26523;52.504;13.498;2022-08-19T13:08:09;26.70;99.90
40808;DHT22;26523;52.504;13.498;2022-08-19T13:10:36;26.60;99.90
40808;DHT22;26523;52.504;13.498;2022-08-19T13:13:06;26.60;99.90
40808;DHT22;26523;52.504;13.498;2022-08-19T13:15:34;26.70;99.90
40808;DHT22;26523;52.504;13.498;2022-08-19T13:18:00;27.00;99.90
40808;DHT22;26523;52.504;13.498;2022-08-19T13:20:26;27.00;99.90
40808;DHT22;26523;52.504;13.498;2022-08-19T13:22:53;26.80;99.90
40808;DHT22;26523;52.504;13.498;2022-08-19T13:25:19;26.50;99.90
40808;DHT22;26523;52.504;13.498;2022-08-19T13:27:47;26.30;99.90
40808;DHT22;26523;52.504;13.498;2022-08-19T13:30:14;26.10;99.90
40808;DHT22;26523;52.504;13.498;2022-08-19T13:32:58;26.00;99.90
40808;DHT22;26523;52.504;13.498;2022-08-19T13:35:41;26.10;99.90
40808;DHT22;26523;52.504;13.498;2022-08-19T13:38:07;26.20;99.90
40808;DHT22;26523;52.504;13.498;2022-08-19T13:40:33;26.20;99.90
40808;DHT22;26523;52.504;13.498;2022-08-19T13:43:00;26.40;99.90
40808;DHT22;26523;52.504;13.498;2022-08-19T13:45:28;26.50;99.90
40808;DHT22;26523;52.504;13.498;2022-08-19T13:47:57;26.50;99.90
40808;DHT22;26523;52.504;13.498;2022-08-19T13:50:26;26.40;99.90
40808;DHT22;26523;52.504;13.498;2022-08-19T13:52:53;26.40;99.90
40808;DHT22;26523;52.504;13.498;2022-08-19T13:55:19;26.20;99.90
40808;DHT22;26523;52.504;13.498;2022-08-19T13:57:51;26.30;99.90
40808;DHT22;26523;52.504;13.498;2022-08-19T14:00:19;26.30;99.90
40808;DHT22;26523;52.504;13.498;2022-08-19T14:02:46;26.30;99.90
40808;DHT22;26523;52.504;13.498;2022-08-19T14:05:15;26.30;99.90
40808;DHT22;26523;52.504;13.498;2022-08-19T14:07:41;26.20;99.90
40808;DHT22;26523;52.504;13.498;2022-08-19T14:10:09;26.20;99.90
40808;DHT22;26523;52.504;13.498;2022-08-19T14:12:36;26.00;99.90
40808;DHT22;26523;52.504;13.498;2022-08-19T14:15:05;25.90;99.90
40808;DHT22;26523;52.504;13.498;2022-08-19T14:17:31;25.70;99.90
40808;DHT22;26523;52.504;13.498;2022-08-19T14:20:02;25.50;99.90
40808;DHT22;26523;52.504;13.498;2022-08-19T14:22:30;25.50;99.90
40808;DHT22;26523;52.504;13.498;2022-08-19T14:24:56;25.40;99.90
40808;DHT22;26523;52.504;13.498;2022-08-19T14:27:22;25.40;99.90
40808;DHT22;26523;52.504;13.498;2022-08-19T14:29:51;25.40;99.90
40808;DHT22;26523;52.504;13.498;2022-08-19T14:32:17;25.30;99.90
40808;DHT22;26523;52.504;13.498;2022-08-19T14:34:42;25.30;99.90
40808;DHT22;26523;52.504;13.498;2022-08-19T14:37:11;25.20;99.90
40808;DHT22;26523;52.504;13.498;2022-08-19T14:39:40;25.10;99.90
40808;DHT22;26523;52.504;13.498;2022-08-19T14:42:09;25.20;99.90
40808;DHT22;26523;52.504;13.498;2022-08-19T14:44:36;25.10;99.90
40808;DHT22;26523;52.504;13.498;2022-08-19T14:47:02;25.10;99.90
40808;DHT22;26523;52.504;13.498;2022-08-19T14:49:28;25.10;99.90
40808;DHT22;26523;52.504;13.498;2022-08-19T14:51:53;25.10;99.90
40808;DHT22;26523;52.504;13.498;2022-08-19T14:54:20;25.20;99.90
40808;DHT22;26523;52.504;13.498;2022-08-19T14:56:48;25.20;99.90
40808;DHT22;26523;52.504;13.498;2022-08-19T14:59:15;25.00;99.90
40808;DHT22;26523;52.504;13.498;2022-08-19T15:01:41;24.90;99.90
40808;DHT22;26523;52.504;13.498;2022-08-19T15:04:06;24.90;99.90
40808;DHT22;26523;52.504;13.498;2022-08-19T15:06:32;24.80;99.90
40808;DHT22;26523;52.504;13.498;2022-08-19T15:08:59;24.80;99.90
40808;DHT22;26523;52.504;13.498;2022-08-19T15:11:27;24.70;99.90
40808;DHT22;26523;52.504;13.498;2022-08-19T15:13:56;24.70;99.90
40808;DHT22;26523;52.504;13.498;2022-08-19T15:16:23;24.60;99.90
40808;DHT22;26523;52.504;13.498;2022-08-19T15:18:55;24.70;99.90
40808;DHT22;26523;52.504;13.498;2022-08-19T15:21:26;24.70;99.90
40808;DHT22;26523;52.504;13.498;2022-08-19T15:23:52;24.80;99.90
40808;DHT22;26523;52.504;13.498;2022-08-19T15:26:18;24.70;99.90
40808;DHT22;26523;52.504;13.498;2022-08-19T15:28:45;24.60;99.90